createdAt,value
2017-12-17T00:00:06.636Z,9.00
2017-12-17T00:01:06.595Z,7.40
2017-12-17T00:02:06.571Z,5.90
2017-12-17T00:03:06.534Z,6.70
2017-12-17T00:04:06.509Z,9.10
2017-12-17T00:05:06.469Z,7.90
2017-12-17T00:06:06.436Z,8.70
2017-12-17T00:07:06.408Z,9.30
2017-12-17T00:08:06.376Z,9.10
2017-12-17T00:09:06.337Z,8.40
2017-12-17T00:10:06.302Z,9.10
2017-12-17T00:11:06.283Z,8.90
2017-12-17T00:12:06.243Z,8.90
2017-12-17T00:13:06.212Z,10.20
2017-12-17T00:14:06.483Z,9.20
2017-12-17T00:15:06.164Z,9.20
2017-12-17T00:16:06.117Z,9.20
2017-12-17T00:17:06.081Z,9.70
2017-12-17T00:18:06.060Z,9.30
2017-12-17T00:19:06.026Z,9.10
2017-12-17T00:20:05.993Z,8.50
2017-12-17T00:21:05.949Z,9.10
2017-12-17T00:22:05.926Z,8.20
2017-12-17T00:23:05.896Z,8.40
2017-12-17T00:24:05.868Z,7.90
2017-12-17T00:25:05.826Z,8.10
2017-12-17T00:26:06.137Z,8.20
2017-12-17T00:27:05.777Z,7.10
2017-12-17T00:28:05.734Z,6.40
2017-12-17T00:29:05.696Z,8.00
2017-12-17T00:30:05.662Z,8.70
2017-12-17T00:31:05.636Z,8.10
2017-12-17T00:32:05.850Z,8.60
2017-12-17T00:33:05.574Z,6.80
2017-12-17T00:34:05.535Z,7.90
2017-12-17T00:35:05.513Z,7.30
2017-12-17T00:36:05.471Z,6.80
2017-12-17T00:37:05.437Z,6.10
2017-12-17T00:38:05.400Z,6.70
2017-12-17T00:39:05.371Z,7.50
2017-12-17T00:40:05.342Z,7.40
2017-12-17T00:41:05.316Z,7.00
2017-12-17T00:42:05.278Z,7.40
2017-12-17T00:43:05.239Z,7.20
2017-12-17T00:44:05.224Z,7.50
2017-12-17T00:45:05.188Z,7.50
2017-12-17T00:46:05.147Z,7.40
2017-12-17T00:47:05.128Z,8.30
2017-12-17T00:48:05.081Z,8.70
2017-12-17T00:49:05.056Z,8.60
2017-12-17T00:50:05.039Z,8.50
2017-12-17T00:51:05.001Z,8.90
2017-12-17T00:52:04.959Z,8.90
2017-12-17T00:53:04.922Z,9.20
2017-12-17T00:54:04.898Z,8.90
2017-12-17T00:55:04.869Z,9.10
2017-12-17T00:56:05.178Z,8.60
2017-12-17T00:57:04.803Z,8.60
2017-12-17T00:58:04.771Z,8.60
2017-12-17T00:59:04.739Z,9.10
2017-12-17T01:00:04.704Z,8.60
2017-12-17T01:01:04.727Z,8.50
2017-12-17T01:02:04.649Z,7.00
2017-12-17T01:03:04.606Z,6.50
2017-12-17T01:04:04.579Z,6.10
2017-12-17T01:05:04.545Z,6.30
2017-12-17T01:06:04.504Z,5.90
2017-12-17T01:07:04.484Z,7.30
2017-12-17T01:08:04.444Z,7.90
2017-12-17T01:09:04.417Z,7.60
2017-12-17T01:10:04.381Z,8.00
2017-12-17T01:11:04.357Z,8.30
2017-12-17T01:12:04.321Z,8.60
2017-12-17T01:13:04.280Z,8.70
2017-12-17T01:14:04.261Z,9.10
2017-12-17T01:15:04.225Z,9.30
2017-12-17T01:16:04.185Z,8.20
2017-12-17T01:17:04.156Z,7.50
2017-12-17T01:18:04.126Z,8.20
2017-12-17T01:19:04.097Z,8.70
2017-12-17T01:20:04.061Z,8.30
2017-12-17T01:21:04.025Z,8.70
2017-12-17T01:22:04.002Z,9.30
2017-12-17T01:23:03.964Z,8.80
2017-12-17T01:24:03.944Z,9.00
2017-12-17T01:25:03.910Z,9.00
2017-12-17T01:26:03.871Z,8.60
2017-12-17T01:27:03.838Z,8.90
2017-12-17T01:28:03.810Z,7.90
2017-12-17T01:29:03.770Z,7.40
2017-12-17T01:30:04.089Z,8.10
2017-12-17T01:31:03.721Z,8.70
2017-12-17T01:32:03.679Z,8.50
2017-12-17T01:33:03.643Z,8.60
2017-12-17T01:34:03.619Z,8.50
2017-12-17T01:35:03.582Z,9.30
2017-12-17T01:36:03.552Z,10.10
2017-12-17T01:37:03.586Z,8.70
2017-12-17T01:38:03.482Z,9.60
2017-12-17T01:39:03.460Z,9.50
2017-12-17T01:40:03.427Z,9.90
2017-12-17T01:41:03.387Z,9.70
2017-12-17T01:42:03.604Z,10.70
2017-12-17T01:43:03.325Z,10.80
2017-12-17T01:44:03.287Z,12.00
2017-12-17T01:45:03.254Z,12.80
2017-12-17T01:46:03.224Z,12.30
2017-12-17T01:47:03.192Z,10.90
2017-12-17T01:48:03.165Z,12.30
2017-12-17T01:49:03.128Z,12.20
2017-12-17T01:50:03.098Z,11.70
2017-12-17T01:51:03.067Z,12.20
2017-12-17T01:52:03.035Z,13.20
2017-12-17T01:53:02.999Z,12.30
2017-12-17T01:54:02.963Z,13.10
2017-12-17T01:55:02.932Z,13.30
2017-12-17T01:56:02.908Z,13.70
2017-12-17T01:57:02.875Z,13.70
2017-12-17T01:58:02.835Z,12.60
2017-12-17T01:59:02.809Z,11.60
2017-12-17T02:00:02.772Z,12.20
2017-12-17T02:01:02.734Z,13.00
2017-12-17T02:02:02.706Z,13.20
2017-12-17T02:03:02.681Z,11.40
2017-12-17T02:04:02.646Z,12.40
2017-12-17T02:05:02.614Z,11.50
2017-12-17T02:06:02.588Z,11.10
2017-12-17T02:07:02.542Z,11.10
2017-12-17T02:08:02.520Z,11.50
2017-12-17T02:09:02.486Z,11.00
2017-12-17T02:10:02.447Z,11.90
2017-12-17T02:11:02.419Z,11.10
2017-12-17T02:12:02.683Z,10.70
2017-12-17T02:13:02.357Z,10.80
2017-12-17T02:14:02.324Z,11.60
2017-12-17T02:15:02.298Z,11.30
2017-12-17T02:16:02.248Z,10.50
2017-12-17T02:17:02.229Z,10.90
2017-12-17T02:18:02.446Z,10.10
2017-12-17T02:19:02.161Z,10.20
2017-12-17T02:20:02.128Z,9.70
2017-12-17T02:21:02.093Z,11.10
2017-12-17T02:22:02.064Z,10.30
2017-12-17T02:23:02.022Z,11.00
2017-12-17T02:24:01.998Z,10.20
2017-12-17T02:25:01.980Z,10.40
2017-12-17T02:26:01.931Z,11.30
2017-12-17T02:27:01.894Z,10.70
2017-12-17T02:28:01.867Z,12.20
2017-12-17T02:29:01.831Z,12.10
2017-12-17T02:30:01.811Z,11.80
2017-12-17T02:31:01.767Z,12.10
2017-12-17T02:32:01.739Z,11.10
2017-12-17T02:33:01.703Z,11.70
2017-12-17T02:34:01.676Z,11.50
2017-12-17T02:35:01.640Z,11.60
2017-12-17T02:36:01.908Z,12.00
2017-12-17T02:37:01.573Z,11.30
2017-12-17T02:38:01.540Z,11.00
2017-12-17T02:39:01.516Z,10.40
2017-12-17T02:40:01.487Z,11.20
2017-12-17T02:41:01.478Z,11.20
2017-12-17T02:42:01.707Z,11.30
2017-12-17T02:43:01.379Z,11.10
2017-12-17T02:44:01.345Z,10.90
2017-12-17T02:45:01.322Z,11.40
2017-12-17T02:46:01.277Z,10.40
2017-12-17T02:47:01.254Z,10.40
2017-12-17T02:48:01.227Z,11.20
2017-12-17T02:49:01.185Z,11.20
2017-12-17T02:50:01.149Z,10.50
2017-12-17T02:51:01.127Z,10.10
2017-12-17T02:52:01.081Z,10.40
2017-12-17T02:53:01.045Z,10.60
2017-12-17T02:54:01.371Z,10.50
2017-12-17T02:55:00.989Z,9.90
2017-12-17T02:56:00.962Z,9.00
2017-12-17T02:57:00.922Z,9.90
2017-12-17T02:58:00.891Z,9.60
2017-12-17T02:59:00.852Z,10.10
2017-12-17T03:00:00.832Z,9.10
2017-12-17T03:01:00.792Z,8.70
2017-12-17T03:02:00.753Z,8.80
2017-12-17T03:03:00.731Z,8.40
2017-12-17T03:04:00.689Z,8.60
2017-12-17T03:05:01.662Z,9.10
2017-12-17T03:06:00.626Z,8.30
2017-12-17T03:07:00.592Z,8.20
2017-12-17T03:08:00.553Z,8.20
2017-12-17T03:09:00.520Z,7.70
2017-12-17T03:10:00.492Z,7.90
2017-12-17T03:11:00.469Z,7.80
2017-12-17T03:12:00.432Z,7.90
2017-12-17T03:13:00.394Z,7.40
2017-12-17T03:14:00.363Z,6.80
2017-12-17T03:15:00.332Z,7.50
2017-12-17T03:16:00.296Z,7.20
2017-12-17T03:17:00.264Z,6.80
2017-12-17T03:18:00.237Z,6.90
2017-12-17T03:19:00.194Z,6.40
2017-12-17T03:20:00.161Z,6.40
2017-12-17T03:21:00.132Z,6.60
2017-12-17T03:22:00.102Z,6.80
2017-12-17T03:23:00.066Z,6.40
2017-12-17T03:24:00.038Z,6.30
2017-12-17T03:25:00.002Z,5.50
2017-12-17T03:25:59.971Z,5.90
2017-12-17T03:26:59.935Z,5.90
2017-12-17T03:27:59.901Z,5.00
2017-12-17T03:28:59.866Z,6.00
2017-12-17T03:29:59.836Z,5.30
2017-12-17T03:30:59.806Z,6.00
2017-12-17T03:31:59.771Z,5.70
2017-12-17T03:32:59.744Z,5.60
2017-12-17T03:33:59.704Z,5.70
2017-12-17T03:34:59.928Z,5.50
2017-12-17T03:35:59.638Z,5.20
2017-12-17T03:36:59.599Z,5.00
2017-12-17T03:37:59.578Z,5.10
2017-12-17T03:38:59.544Z,5.00
2017-12-17T03:39:59.500Z,5.40
2017-12-17T03:40:59.783Z,4.50
2017-12-17T03:41:59.444Z,4.40
2017-12-17T03:42:59.411Z,5.40
2017-12-17T03:43:59.386Z,4.90
2017-12-17T03:44:59.349Z,4.80
2017-12-17T03:45:59.307Z,4.70
2017-12-17T03:46:59.581Z,5.70
2017-12-17T03:47:59.249Z,5.30
2017-12-17T03:48:59.216Z,4.10
2017-12-17T03:49:59.179Z,4.30
2017-12-17T03:50:59.143Z,4.50
2017-12-17T03:51:59.113Z,4.50
2017-12-17T03:52:59.359Z,4.10
2017-12-17T03:53:59.048Z,4.30
2017-12-17T03:54:59.015Z,4.40
2017-12-17T03:55:58.972Z,4.20
2017-12-17T03:56:58.939Z,3.70
2017-12-17T03:57:58.917Z,3.80
2017-12-17T03:58:58.874Z,4.40
2017-12-17T03:59:58.847Z,4.20
2017-12-17T04:00:58.818Z,3.70
2017-12-17T04:01:58.778Z,3.70
2017-12-17T04:02:58.745Z,3.40
2017-12-17T04:03:58.721Z,3.20
2017-12-17T04:04:59.488Z,3.80
2017-12-17T04:05:58.654Z,3.60
2017-12-17T04:06:58.621Z,3.20
2017-12-17T04:07:58.583Z,3.20
2017-12-17T04:08:58.561Z,3.20
2017-12-17T04:09:58.558Z,2.90
2017-12-17T04:10:58.793Z,3.40
2017-12-17T04:11:58.462Z,2.90
2017-12-17T04:12:58.416Z,3.10
2017-12-17T04:13:58.391Z,3.00
2017-12-17T04:14:58.356Z,2.80
2017-12-17T04:15:58.322Z,2.70
2017-12-17T04:16:58.290Z,3.20
2017-12-17T04:17:58.258Z,3.20
2017-12-17T04:18:58.216Z,2.90
2017-12-17T04:19:58.189Z,3.00
2017-12-17T04:20:58.160Z,2.90
2017-12-17T04:21:58.130Z,3.00
2017-12-17T04:22:58.397Z,3.00
2017-12-17T04:23:58.064Z,2.70
2017-12-17T04:24:58.023Z,3.10
2017-12-17T04:25:57.994Z,2.60
2017-12-17T04:26:57.969Z,2.80
2017-12-17T04:27:57.925Z,2.40
2017-12-17T04:28:57.885Z,2.50
2017-12-17T04:29:57.860Z,2.30
2017-12-17T04:30:57.826Z,2.40
2017-12-17T04:31:57.806Z,2.50
2017-12-17T04:32:57.761Z,2.50
2017-12-17T04:33:57.720Z,2.30
2017-12-17T04:34:57.694Z,2.20
2017-12-17T04:35:57.660Z,2.40
2017-12-17T04:36:57.628Z,2.40
2017-12-17T04:37:57.610Z,2.00
2017-12-17T04:38:57.559Z,2.00
2017-12-17T04:39:57.555Z,2.30
2017-12-17T04:40:57.795Z,2.20
2017-12-17T04:41:57.472Z,2.20
2017-12-17T04:42:57.433Z,2.20
2017-12-17T04:43:57.404Z,2.40
2017-12-17T04:44:57.357Z,2.10
2017-12-17T04:45:57.331Z,2.20
2017-12-17T04:46:57.299Z,2.10
2017-12-17T04:47:57.272Z,2.30
2017-12-17T04:48:57.238Z,2.20
2017-12-17T04:49:57.195Z,2.00
2017-12-17T04:50:57.166Z,2.30
2017-12-17T04:51:57.142Z,1.90
2017-12-17T04:52:57.449Z,2.40
2017-12-17T04:53:57.075Z,1.90
2017-12-17T04:54:57.041Z,1.90
2017-12-17T04:55:57.000Z,2.20
2017-12-17T04:56:56.973Z,2.00
2017-12-17T04:57:56.935Z,2.00
2017-12-17T04:58:56.905Z,2.00
2017-12-17T04:59:56.860Z,2.40
2017-12-17T05:00:56.834Z,2.10
2017-12-17T05:01:56.799Z,2.00
2017-12-17T05:02:56.767Z,1.70
2017-12-17T05:03:56.734Z,2.00
2017-12-17T05:04:56.699Z,1.90
2017-12-17T05:05:56.666Z,2.20
2017-12-17T05:06:56.633Z,1.70
2017-12-17T05:07:56.609Z,2.30
2017-12-17T05:08:56.571Z,1.90
2017-12-17T05:09:56.535Z,1.80
2017-12-17T05:10:56.821Z,2.10
2017-12-17T05:11:56.464Z,1.90
2017-12-17T05:12:56.435Z,1.90
2017-12-17T05:13:56.401Z,1.90
2017-12-17T05:14:56.369Z,1.80
2017-12-17T05:15:56.336Z,2.10
2017-12-17T05:16:56.660Z,1.80
2017-12-17T05:17:56.277Z,2.20
2017-12-17T05:18:56.239Z,2.00
2017-12-17T05:19:56.209Z,2.10
2017-12-17T05:20:56.173Z,2.20
2017-12-17T05:21:56.146Z,1.80
2017-12-17T05:22:56.109Z,2.70
2017-12-17T05:23:56.077Z,2.80
2017-12-17T05:24:56.036Z,2.00
2017-12-17T05:25:56.009Z,2.00
2017-12-17T05:26:55.977Z,2.00
2017-12-17T05:27:55.945Z,2.60
2017-12-17T05:28:56.266Z,2.00
2017-12-17T05:29:55.868Z,2.10
2017-12-17T05:30:55.845Z,2.10
2017-12-17T05:31:55.806Z,2.40
2017-12-17T05:32:55.784Z,2.60
2017-12-17T05:33:55.757Z,2.80
2017-12-17T05:34:56.007Z,3.00
2017-12-17T05:35:55.670Z,2.90
2017-12-17T05:36:55.638Z,3.20
2017-12-17T05:37:55.615Z,2.80
2017-12-17T05:38:55.586Z,2.90
2017-12-17T05:39:55.544Z,2.80
2017-12-17T05:40:55.504Z,3.00
2017-12-17T05:41:55.473Z,3.30
2017-12-17T05:42:55.441Z,2.90
2017-12-17T05:43:55.413Z,3.30
2017-12-17T05:44:55.376Z,3.30
2017-12-17T05:45:55.350Z,2.80
2017-12-17T05:46:55.309Z,3.10
2017-12-17T05:47:55.286Z,3.00
2017-12-17T05:48:55.251Z,2.90
2017-12-17T05:49:55.223Z,3.10
2017-12-17T05:50:55.189Z,3.40
2017-12-17T05:51:55.143Z,3.40
2017-12-17T05:52:55.122Z,3.00
2017-12-17T05:53:55.119Z,3.20
2017-12-17T05:54:55.052Z,3.40
2017-12-17T05:55:55.081Z,3.50
2017-12-17T05:56:54.985Z,3.40
2017-12-17T05:57:54.955Z,3.60
2017-12-17T05:58:55.265Z,3.20
2017-12-17T05:59:54.896Z,3.60
2017-12-17T06:00:54.861Z,3.30
2017-12-17T06:01:54.827Z,3.30
2017-12-17T06:02:54.793Z,3.70
2017-12-17T06:03:54.767Z,3.40
2017-12-17T06:04:55.587Z,3.20
2017-12-17T06:05:54.701Z,3.40
2017-12-17T06:06:54.668Z,3.60
2017-12-17T06:07:54.630Z,3.80
2017-12-17T06:08:54.588Z,3.30
2017-12-17T06:09:54.561Z,3.80
2017-12-17T06:10:54.536Z,3.20
2017-12-17T06:11:54.502Z,3.20
2017-12-17T06:12:54.463Z,3.40
2017-12-17T06:13:54.435Z,3.60
2017-12-17T06:14:54.400Z,3.50
2017-12-17T06:15:54.364Z,3.90
2017-12-17T06:16:54.339Z,3.80
2017-12-17T06:17:54.302Z,3.70
2017-12-17T06:18:54.262Z,4.40
2017-12-17T06:19:54.242Z,4.10
2017-12-17T06:20:54.206Z,3.70
2017-12-17T06:21:54.174Z,4.10
2017-12-17T06:22:54.398Z,4.40
2017-12-17T06:23:54.101Z,4.40
2017-12-17T06:24:54.064Z,4.10
2017-12-17T06:25:54.036Z,3.90
2017-12-17T06:26:54.019Z,4.10
2017-12-17T06:27:53.971Z,4.30
2017-12-17T06:28:53.945Z,4.10
2017-12-17T06:29:53.907Z,3.90
2017-12-17T06:30:53.871Z,4.30
2017-12-17T06:31:53.844Z,3.90
2017-12-17T06:32:53.810Z,4.30
2017-12-17T06:33:53.782Z,4.10
2017-12-17T06:34:53.743Z,3.70
2017-12-17T06:35:53.713Z,3.80
2017-12-17T06:36:53.682Z,3.70
2017-12-17T06:37:53.650Z,4.10
2017-12-17T06:38:53.896Z,4.50
2017-12-17T06:39:53.590Z,3.80
2017-12-17T06:40:53.550Z,4.00
2017-12-17T06:41:53.520Z,3.90
2017-12-17T06:42:53.485Z,4.10
2017-12-17T06:43:53.453Z,3.70
2017-12-17T06:44:53.413Z,4.10
2017-12-17T06:45:53.381Z,3.90
2017-12-17T06:46:53.595Z,4.10
2017-12-17T06:47:53.326Z,4.30
2017-12-17T06:48:53.287Z,4.20
2017-12-17T06:49:53.256Z,4.00
2017-12-17T06:50:53.215Z,4.10
2017-12-17T06:51:53.192Z,4.00
2017-12-17T06:52:53.514Z,3.80
2017-12-17T06:53:53.123Z,4.60
2017-12-17T06:54:53.099Z,3.90
2017-12-17T06:55:53.055Z,4.10
2017-12-17T06:56:53.026Z,4.20
2017-12-17T06:57:52.993Z,4.40
2017-12-17T06:58:53.321Z,4.50
2017-12-17T06:59:52.935Z,4.20
2017-12-17T07:00:52.897Z,4.50
2017-12-17T07:01:52.865Z,4.60
2017-12-17T07:02:52.831Z,4.20
2017-12-17T07:03:52.796Z,4.60
2017-12-17T07:04:52.774Z,4.50
2017-12-17T07:05:52.731Z,4.80
2017-12-17T07:06:52.701Z,4.50
2017-12-17T07:07:52.668Z,4.70
2017-12-17T07:08:52.639Z,4.60
2017-12-17T07:09:52.604Z,4.60
2017-12-17T07:10:52.580Z,5.10
2017-12-17T07:11:52.537Z,4.60
2017-12-17T07:12:52.505Z,4.60
2017-12-17T07:13:52.475Z,4.60
2017-12-17T07:14:52.438Z,4.60
2017-12-17T07:15:52.411Z,4.70
2017-12-17T07:16:52.719Z,4.80
2017-12-17T07:17:52.337Z,4.80
2017-12-17T07:18:52.310Z,4.60
2017-12-17T07:19:52.277Z,4.60
2017-12-17T07:20:52.242Z,5.00
2017-12-17T07:21:52.214Z,4.80
2017-12-17T07:22:52.184Z,4.80
2017-12-17T07:23:52.153Z,4.80
2017-12-17T07:24:52.106Z,4.80
2017-12-17T07:25:52.080Z,5.10
2017-12-17T07:26:52.047Z,4.50
2017-12-17T07:27:52.018Z,4.70
2017-12-17T07:28:52.394Z,4.70
2017-12-17T07:29:51.954Z,4.60
2017-12-17T07:30:51.925Z,5.30
2017-12-17T07:31:51.894Z,5.00
2017-12-17T07:32:51.855Z,5.20
2017-12-17T07:33:51.823Z,5.00
2017-12-17T07:34:51.791Z,5.10
2017-12-17T07:35:51.759Z,5.00
2017-12-17T07:36:51.728Z,4.50
2017-12-17T07:37:51.694Z,4.80
2017-12-17T07:38:51.661Z,5.40
2017-12-17T07:39:51.621Z,5.20
2017-12-17T07:40:51.594Z,4.50
2017-12-17T07:41:51.554Z,4.80
2017-12-17T07:42:51.527Z,5.00
2017-12-17T07:43:51.493Z,4.80
2017-12-17T07:44:51.466Z,4.70
2017-12-17T07:45:51.438Z,5.10
2017-12-17T07:46:51.396Z,5.40
2017-12-17T07:47:51.370Z,4.80
2017-12-17T07:48:51.331Z,4.50
2017-12-17T07:49:51.302Z,4.80
2017-12-17T07:50:51.268Z,5.20
2017-12-17T07:51:51.233Z,5.10
2017-12-17T07:52:51.547Z,5.30
2017-12-17T07:53:51.172Z,5.60
2017-12-17T07:54:51.140Z,5.30
2017-12-17T07:55:51.099Z,5.40
2017-12-17T07:56:51.074Z,5.40
2017-12-17T07:57:51.034Z,5.40
2017-12-17T07:58:51.304Z,5.80
2017-12-17T07:59:50.973Z,5.90
2017-12-17T08:00:50.936Z,5.40
2017-12-17T08:01:50.898Z,5.30
2017-12-17T08:02:50.871Z,6.10
2017-12-17T08:03:50.844Z,5.30
2017-12-17T08:04:50.814Z,5.60
2017-12-17T08:05:50.777Z,5.80
2017-12-17T08:06:50.745Z,6.20
2017-12-17T08:07:50.707Z,5.70
2017-12-17T08:08:50.677Z,5.60
2017-12-17T08:09:50.643Z,5.10
2017-12-17T08:10:50.618Z,5.90
2017-12-17T08:11:50.579Z,5.70
2017-12-17T08:12:50.542Z,5.60
2017-12-17T08:13:50.519Z,5.90
2017-12-17T08:14:50.476Z,5.60
2017-12-17T08:15:50.442Z,6.00
2017-12-17T08:16:50.409Z,5.60
2017-12-17T08:17:50.373Z,5.50
2017-12-17T08:18:50.340Z,5.50
2017-12-17T08:19:50.313Z,5.20
2017-12-17T08:20:50.292Z,5.40
2017-12-17T08:21:50.251Z,5.70
2017-12-17T08:22:50.225Z,5.80
2017-12-17T08:23:50.189Z,5.40
2017-12-17T08:24:50.146Z,5.50
2017-12-17T08:25:50.117Z,5.20
2017-12-17T08:26:50.087Z,5.80
2017-12-17T08:27:50.058Z,5.40
2017-12-17T08:28:50.026Z,5.60
2017-12-17T08:29:49.982Z,5.80
2017-12-17T08:30:49.962Z,5.40
2017-12-17T08:31:49.931Z,5.40
2017-12-17T08:32:49.891Z,5.70
2017-12-17T08:33:50.206Z,5.50
2017-12-17T08:34:49.832Z,5.80
2017-12-17T08:35:49.809Z,5.20
2017-12-17T08:36:49.769Z,5.50
2017-12-17T08:37:49.734Z,5.50
2017-12-17T08:38:49.697Z,5.40
2017-12-17T08:39:49.662Z,5.80
2017-12-17T08:40:49.633Z,5.10
2017-12-17T08:41:49.600Z,5.10
2017-12-17T08:42:49.573Z,5.20
2017-12-17T08:43:49.537Z,5.30
2017-12-17T08:44:49.508Z,6.00
2017-12-17T08:45:49.474Z,5.50
2017-12-17T08:46:49.439Z,5.90
2017-12-17T08:47:49.407Z,5.70
2017-12-17T08:48:49.376Z,5.10
2017-12-17T08:49:49.352Z,6.30
2017-12-17T08:50:49.313Z,5.40
2017-12-17T08:51:49.288Z,5.50
2017-12-17T08:52:49.253Z,5.50
2017-12-17T08:53:49.214Z,5.70
2017-12-17T08:54:49.190Z,5.40
2017-12-17T08:55:49.155Z,6.40
2017-12-17T08:56:49.115Z,5.50
2017-12-17T08:57:49.338Z,5.80
2017-12-17T08:58:49.063Z,6.00
2017-12-17T08:59:49.033Z,5.70
2017-12-17T09:00:48.989Z,5.80
2017-12-17T09:01:48.961Z,6.20
2017-12-17T09:02:48.927Z,6.20
2017-12-17T09:03:48.903Z,5.50
2017-12-17T09:04:48.876Z,5.50
2017-12-17T09:05:48.842Z,5.40
2017-12-17T09:06:48.803Z,6.00
2017-12-17T09:07:48.781Z,5.70
2017-12-17T09:08:48.751Z,5.80
2017-12-17T09:09:49.060Z,5.30
2017-12-17T09:10:48.682Z,5.90
2017-12-17T09:11:48.644Z,5.20
2017-12-17T09:12:48.605Z,5.30
2017-12-17T09:13:48.596Z,5.60
2017-12-17T09:14:48.556Z,5.40
2017-12-17T09:15:48.513Z,5.10
2017-12-17T09:16:48.481Z,5.70
2017-12-17T09:17:48.448Z,5.20
2017-12-17T09:18:48.418Z,5.20
2017-12-17T09:19:48.399Z,5.60
2017-12-17T09:20:48.360Z,5.20
2017-12-17T09:21:48.322Z,5.30
2017-12-17T09:22:48.298Z,5.80
2017-12-17T09:23:48.269Z,5.60
2017-12-17T09:24:48.230Z,5.00
2017-12-17T09:25:48.210Z,5.70
2017-12-17T09:26:48.168Z,5.20
2017-12-17T09:27:48.142Z,5.30
2017-12-17T09:28:48.105Z,5.30
2017-12-17T09:29:48.076Z,5.30
2017-12-17T09:30:48.045Z,5.50
2017-12-17T09:31:48.058Z,5.10
2017-12-17T09:32:47.978Z,4.80
2017-12-17T09:33:47.947Z,5.30
2017-12-17T09:34:47.926Z,5.40
2017-12-17T09:35:47.890Z,5.60
2017-12-17T09:36:47.860Z,5.20
2017-12-17T09:37:47.829Z,5.10
2017-12-17T09:38:47.801Z,4.60
2017-12-17T09:39:48.118Z,4.90
2017-12-17T09:40:47.733Z,4.60
2017-12-17T09:41:47.700Z,5.00
2017-12-17T09:42:47.684Z,4.70
2017-12-17T09:43:47.651Z,5.00
2017-12-17T09:44:47.614Z,4.80
2017-12-17T09:45:47.570Z,4.80
2017-12-17T09:46:47.553Z,4.70
2017-12-17T09:47:47.511Z,4.70
2017-12-17T09:48:47.480Z,4.90
2017-12-17T09:49:47.452Z,5.10
2017-12-17T09:50:47.436Z,5.00
2017-12-17T09:51:47.742Z,4.80
2017-12-17T09:52:47.362Z,4.80
2017-12-17T09:53:47.389Z,4.70
2017-12-17T09:54:47.306Z,5.10
2017-12-17T09:55:47.269Z,4.80
2017-12-17T09:56:47.233Z,5.10
2017-12-17T09:57:47.210Z,4.80
2017-12-17T09:58:47.174Z,5.00
2017-12-17T09:59:47.144Z,5.20
2017-12-17T10:00:47.122Z,4.50
2017-12-17T10:01:47.078Z,5.50
2017-12-17T10:02:47.048Z,5.40
2017-12-17T10:03:47.024Z,5.10
2017-12-17T10:04:47.000Z,4.80
2017-12-17T10:05:46.959Z,4.60
2017-12-17T10:06:46.937Z,5.30
2017-12-17T10:07:46.895Z,5.00
2017-12-17T10:08:46.866Z,5.30
2017-12-17T10:09:46.838Z,4.60
2017-12-17T10:10:46.815Z,5.00
2017-12-17T10:11:46.784Z,4.80
2017-12-17T10:12:46.757Z,4.40
2017-12-17T10:13:46.719Z,4.50
2017-12-17T10:14:47.033Z,4.60
2017-12-17T10:15:46.661Z,4.90
2017-12-17T10:16:46.628Z,4.40
2017-12-17T10:17:46.593Z,4.50
2017-12-17T10:18:46.569Z,4.70
2017-12-17T10:19:46.537Z,4.70
2017-12-17T10:20:46.507Z,4.80
2017-12-17T10:21:46.491Z,4.60
2017-12-17T10:22:46.452Z,4.20
2017-12-17T10:23:46.429Z,4.50
2017-12-17T10:24:46.384Z,4.50
2017-12-17T10:25:46.367Z,4.80
2017-12-17T10:26:46.635Z,4.80
2017-12-17T10:27:46.295Z,4.20
2017-12-17T10:28:46.266Z,4.40
2017-12-17T10:29:46.234Z,4.30
2017-12-17T10:30:46.215Z,4.00
2017-12-17T10:31:46.180Z,3.90
2017-12-17T10:32:46.159Z,4.40
2017-12-17T10:33:46.124Z,4.20
2017-12-17T10:34:46.100Z,4.30
2017-12-17T10:35:46.070Z,4.20
2017-12-17T10:36:46.042Z,4.50
2017-12-17T10:37:46.016Z,4.70
2017-12-17T10:38:45.976Z,5.00
2017-12-17T10:39:45.940Z,5.10
2017-12-17T10:40:45.918Z,5.00
2017-12-17T10:41:45.893Z,4.80
2017-12-17T10:42:45.857Z,5.10
2017-12-17T10:43:45.824Z,4.80
2017-12-17T10:44:45.806Z,4.90
2017-12-17T10:45:45.782Z,4.10
2017-12-17T10:46:45.739Z,4.50
2017-12-17T10:47:45.714Z,4.30
2017-12-17T10:48:45.685Z,4.40
2017-12-17T10:49:45.654Z,4.30
2017-12-17T10:50:45.622Z,4.10
2017-12-17T10:51:45.589Z,4.10
2017-12-17T10:52:45.561Z,4.00
2017-12-17T10:53:45.531Z,4.40
2017-12-17T10:54:45.506Z,4.60
2017-12-17T10:55:45.823Z,4.30
2017-12-17T10:56:45.461Z,4.20
2017-12-17T10:57:45.414Z,4.00
2017-12-17T10:58:45.402Z,4.00
2017-12-17T10:59:45.358Z,4.10
2017-12-17T11:00:45.324Z,4.30
2017-12-17T11:01:45.904Z,4.20
2017-12-17T11:02:45.269Z,3.60
2017-12-17T11:03:45.252Z,3.90
2017-12-17T11:04:45.229Z,4.10
2017-12-17T11:05:45.187Z,4.40
2017-12-17T11:06:45.161Z,3.80
2017-12-17T11:07:45.142Z,3.80
2017-12-17T11:08:45.103Z,3.80
2017-12-17T11:09:45.093Z,3.60
2017-12-17T11:10:45.062Z,3.30
2017-12-17T11:11:45.026Z,3.60
2017-12-17T11:12:44.988Z,3.60
2017-12-17T11:13:44.971Z,3.80
2017-12-17T11:14:44.940Z,3.80
2017-12-17T11:15:44.913Z,4.00
2017-12-17T11:16:44.877Z,3.90
2017-12-17T11:17:44.864Z,3.80
2017-12-17T11:18:44.835Z,3.50
2017-12-17T11:19:44.802Z,3.70
2017-12-17T11:20:44.770Z,3.40
2017-12-17T11:21:44.742Z,3.50
2017-12-17T11:22:44.723Z,3.50
2017-12-17T11:23:44.700Z,3.90
2017-12-17T11:24:44.690Z,3.80
2017-12-17T11:25:44.935Z,4.10
2017-12-17T11:26:44.613Z,3.30
2017-12-17T11:27:44.592Z,3.50
2017-12-17T11:28:44.554Z,3.50
2017-12-17T11:29:44.533Z,3.70
2017-12-17T11:30:44.505Z,3.20
2017-12-17T11:31:44.472Z,3.50
2017-12-17T11:32:44.446Z,3.70
2017-12-17T11:33:44.422Z,3.60
2017-12-17T11:34:44.392Z,3.50
2017-12-17T11:35:44.370Z,3.50
2017-12-17T11:36:44.337Z,3.90
2017-12-17T11:37:44.665Z,3.50
2017-12-17T11:38:44.292Z,3.60
2017-12-17T11:39:44.260Z,3.60
2017-12-17T11:40:44.232Z,3.60
2017-12-17T11:41:44.200Z,3.30
2017-12-17T11:42:44.171Z,3.70
2017-12-17T11:43:44.158Z,3.90
2017-12-17T11:44:44.126Z,3.90
2017-12-17T11:45:44.089Z,3.50
2017-12-17T11:46:44.071Z,3.50
2017-12-17T11:47:44.054Z,3.80
2017-12-17T11:48:44.015Z,3.80
2017-12-17T11:49:44.338Z,3.70
2017-12-17T11:50:43.967Z,3.80
2017-12-17T11:51:43.941Z,3.90
2017-12-17T11:52:43.915Z,4.20
2017-12-17T11:53:43.895Z,3.90
2017-12-17T11:54:43.850Z,3.80
2017-12-17T11:55:43.825Z,4.00
2017-12-17T11:56:43.797Z,3.70
2017-12-17T11:57:43.778Z,3.30
2017-12-17T11:58:43.749Z,3.40
2017-12-17T11:59:43.714Z,3.40
2017-12-17T12:00:43.692Z,3.30
2017-12-17T12:01:43.654Z,3.20
2017-12-17T12:02:43.636Z,3.50
2017-12-17T12:03:43.615Z,3.50
2017-12-17T12:04:43.581Z,3.30
2017-12-17T12:05:43.556Z,3.60
2017-12-17T12:06:43.522Z,3.60
2017-12-17T12:07:43.491Z,3.90
2017-12-17T12:08:43.465Z,3.50
2017-12-17T12:09:43.455Z,3.70
2017-12-17T12:10:43.418Z,3.40
2017-12-17T12:11:43.392Z,3.30
2017-12-17T12:12:43.366Z,3.20
2017-12-17T12:13:43.640Z,3.50
2017-12-17T12:14:43.301Z,3.60
2017-12-17T12:15:43.288Z,3.30
2017-12-17T12:16:43.257Z,3.60
2017-12-17T12:17:43.229Z,3.30
2017-12-17T12:18:43.197Z,3.70
2017-12-17T12:19:43.171Z,3.60
2017-12-17T12:20:43.140Z,3.50
2017-12-17T12:21:43.118Z,3.80
2017-12-17T12:22:43.091Z,3.50
2017-12-17T12:23:43.060Z,4.10
2017-12-17T12:24:43.024Z,4.10
2017-12-17T12:25:43.014Z,4.30
2017-12-17T12:26:43.031Z,3.90
2017-12-17T12:27:42.953Z,3.90
2017-12-17T12:28:42.915Z,3.90
2017-12-17T12:29:42.888Z,3.90
2017-12-17T12:30:42.868Z,3.90
2017-12-17T12:31:42.848Z,4.20
2017-12-17T12:32:42.825Z,4.10
2017-12-17T12:33:42.780Z,3.70
2017-12-17T12:34:42.763Z,3.90
2017-12-17T12:35:42.727Z,3.80
2017-12-17T12:36:42.704Z,3.50
2017-12-17T12:37:42.673Z,3.90
2017-12-17T12:38:42.644Z,4.10
2017-12-17T12:39:42.633Z,3.80
2017-12-17T12:40:42.590Z,4.10
2017-12-17T12:41:42.570Z,3.70
2017-12-17T12:42:42.543Z,3.90
2017-12-17T12:43:42.505Z,3.60
2017-12-17T12:44:42.481Z,4.10
2017-12-17T12:45:42.453Z,4.00
2017-12-17T12:46:42.435Z,4.20
2017-12-17T12:47:42.410Z,4.30
2017-12-17T12:48:42.373Z,4.00
2017-12-17T12:49:42.351Z,4.20
2017-12-17T12:50:42.319Z,3.90
2017-12-17T12:51:42.303Z,4.20
2017-12-17T12:52:42.283Z,4.40
2017-12-17T12:53:42.244Z,4.30
2017-12-17T12:54:42.221Z,4.20
2017-12-17T12:55:42.191Z,3.90
2017-12-17T12:56:42.167Z,4.20
2017-12-17T12:57:42.145Z,4.40
2017-12-17T12:58:42.143Z,4.30
2017-12-17T12:59:42.087Z,4.60
2017-12-17T13:00:42.064Z,4.80
2017-12-17T13:01:42.025Z,4.90
2017-12-17T13:02:42.007Z,4.60
2017-12-17T13:03:41.987Z,4.80
2017-12-17T13:04:41.948Z,5.70
2017-12-17T13:05:41.930Z,4.70
2017-12-17T13:06:41.901Z,4.90
2017-12-17T13:07:41.878Z,5.70
2017-12-17T13:08:41.842Z,5.20
2017-12-17T13:09:41.822Z,5.70
2017-12-17T13:10:41.798Z,5.70
2017-12-17T13:11:41.755Z,5.90
2017-12-17T13:12:41.739Z,6.10
2017-12-17T13:13:41.706Z,5.10
2017-12-17T13:14:41.681Z,6.10